Latest Weather Observations for Yarrawonga

IDV60801

Issued at 3:31 pm EDT Sunday 1 March 2015 (issued every 30 minutes, with the page automatically refreshed every 10 minutes)

About weather observations | Map of weather stations | Latest weather observations for VIC | Other Formats
Station Details ID: 081124 Name: YARRAWONGA Lat: -36.03 Lon: 146.03 Height: 128.9 m
Data from the previous 72 hours. | See also: Recent months at Yarrawonga
Date/Time
EDT
Temp
°C
App
Temp
°C
Dew
Point
Rel
Hum
%
Delta-T
°C
Wind Press
QNH
hPa
Press
MSL
hPa
Rain
since 9 am
mm
Dir
 
Spd
km/h
Gust
km/h
Spd
kts
Gust
kts
01/03:30pm 26.9 19.5 4.0 23 11.6 SSW 32 46 17 25 1010.8 1010.4 0.0
01/03:00pm 26.2 19.2 6.8 29 10.3 SW 33 54 18 29 1010.8 1010.4 0.0
01/02:58pm 26.8 19.8 6.8 28 10.6 SW 33 52 18 28 1010.6 1010.2 0.0
01/02:30pm 27.0 20.3 7.5 29 10.5 SW 32 46 17 25 1010.7 1010.3 0.0
01/02:04pm 26.7 20.1 7.7 30 10.2 SW 32 52 17 28 1010.5 1010.1 0.0
01/02:00pm 26.1 19.9 7.7 31 9.9 SW 30 43 16 23 1010.5 1010.1 0.0
01/01:30pm 26.1 20.2 7.7 31 9.9 SW 28 43 15 23 1010.6 1010.2 0.0
01/01:00pm 25.6 19.1 6.3 29 10.1 SW 30 41 16 22 1010.7 1010.3 0.0
01/12:30pm 24.9 17.8 5.7 29 9.9 SW 32 39 17 21 1010.7 1010.3 0.0
01/12:00pm 24.3 17.9 8.7 37 8.4 WSW 32 43 17 23 1010.6 1010.2 0.0
01/11:30am 23.8 19.1 10.5 43 7.4 SW 26 35 14 19 1010.5 1010.1 0.0
01/11:00am 22.8 19.5 12.7 53 5.8 SW 22 33 12 18 1010.2 1009.8 0.0
01/10:30am 22.0 18.0 13.1 57 5.1 SW 26 33 14 18 1009.9 1009.3 0.0
01/10:00am 20.6 16.5 13.8 65 3.9 SW 28 33 15 18 1009.6 1009.0 0.0
01/09:30am 19.4 15.8 14.2 72 3.0 SW 26 35 14 19 1009.3 1008.7 0.0
01/09:00am 18.5 15.6 15.0 80 2.1 SW 24 35 13 19 1008.7 1008.1 0.4
01/08:30am 17.1 14.7 15.4 90 1.0 WSW 22 28 12 15 1008.3 1007.7 0.4
01/08:00am 16.9 13.0 15.6 92 0.8 SW 30 39 16 21 1007.7 1007.1 0.4
01/07:30am 17.9 16.7 17.6 98 0.2 WSW 20 26 11 14 1006.9 1006.2 0.4
01/07:00am 18.2 16.8 17.9 98 0.2 WSW 22 32 12 17 1006.0 1005.4 0.2
01/06:30am 19.1 18.1 18.8 98 0.2 SW 22 32 12 17 1005.0 1004.4 0.0
01/06:00am 19.7 18.9 18.0 90 1.1 WSW 19 26 10 14 1005.2 1004.6 0.0
01/05:30am 20.7 19.7 17.5 82 2.0 W 19 26 10 14 1005.2 1004.6 0.0
01/05:00am 21.0 20.8 16.6 76 2.7 WSW 13 19 7 10 1004.9 1004.3 0.0
01/04:30am 21.3 22.7 16.3 73 3.0 W 4 7 2 4 1003.6 1003.0 0.0
01/04:00am 22.1 23.0 16.1 69 3.7 WSW 6 9 3 5 1004.1 1003.5 0.0
01/03:30am 22.5 23.3 15.8 66 4.1 ESE 6 9 3 5 1003.5 1002.9 0.0
01/03:00am 22.6 22.1 15.9 66 4.1 SSE 13 20 7 11 1003.3 1002.7 0.0
01/02:30am 23.0 21.6 15.6 63 4.5 SSW 17 24 9 13 1004.3 1003.7 0.0
01/02:00am 23.4 21.0 15.5 61 4.8 S 22 32 12 17 1004.5 1003.9 0.0
01/01:30am 24.0 19.4 15.2 58 5.3 SW 33 50 18 27 1005.3 1004.7 0.0
01/01:00am 24.2 20.0 14.6 55 5.8 SW 30 41 16 22 1004.6 1004.0 0.0
01/12:30am 23.9 19.1 14.6 56 5.5 SW 33 48 18 26 1004.1 1003.5 0.0
01/12:15am 25.5 21.1 14.0 49 6.9 WSW 30 54 16 29 1004.2 1003.6 0.0
01/12:00am 27.3 23.8 12.1 39 8.9 W 22 35 12 19 1003.8 1003.2 0.0
 
Date/Time
EDT
Temp
°C
App
Temp
°C
Dew
Point
Rel
Hum
%
Delta-T
°C
Wind Press
QNH
hPa
Press
MSL
hPa
Rain
since 9 am
mm
Dir
 
Spd
km/h
Gust
km/h
Spd
kts
Gust
kts
28/11:30pm 27.9 21.6 9.7 32 10.2 WSW 33 54 18 29 1003.5 1002.9 0.0
28/11:26pm 27.7 23.3 9.0 31 10.3 WNW 22 46 12 25 1003.6 1003.0 0.0
28/11:00pm 27.0 24.4 9.4 33 9.8 NNE 13 17 7 9 1002.0 1001.4 0.0
28/10:30pm 26.9 24.5 8.8 32 9.9 NNE 11 17 6 9 1002.3 1001.7 0.0
28/10:00pm 27.4 25.0 8.8 31 10.3 NE 11 15 6 8 1002.6 1002.0 0.0
28/09:30pm 26.4 24.7 11.3 39 8.6 NE 11 13 6 7 1002.7 1002.1 0.0
28/09:00pm 26.6 25.3 12.6 42 8.2 NE 11 13 6 7 1002.9 1002.3 0.0
28/08:30pm 27.3 26.7 13.6 43 8.2 NE 9 11 5 6 1002.8 1002.2 0.0
28/08:00pm 28.8 27.5 11.4 34 10.1 ENE 9 11 5 6 1002.9 1002.3 0.0
28/07:30pm 32.0 30.1 7.6 22 13.5 NE 7 9 4 5 1003.0 1002.4 0.0
28/07:00pm 33.2 30.9 5.7 18 14.9 NNE 7 9 4 5 1003.1 1002.5 0.0
28/06:30pm 33.9 31.9 7.0 19 14.8 NNE 7 9 4 5 1003.1 1002.5 0.0
28/06:00pm 32.9 30.7 6.2 19 14.5 N 7 9 4 5 1003.5 1002.9 0.0
28/05:30pm 32.8 30.6 5.4 18 14.7 N 6 7 3 4 1003.5 1002.9 0.0
28/05:00pm 33.8 30.7 3.6 15 15.8 NE 9 15 5 8 1003.7 1003.1 0.0
28/04:30pm 33.8 30.5 4.5 16 15.5 ENE 11 17 6 9 1003.9 1003.3 0.0
28/04:00pm 32.8 29.7 3.7 16 15.2 NE 9 17 5 9 1004.3 1003.7 0.0
28/03:30pm 32.6 29.3 2.6 15 15.3 NNE 9 13 5 7 1005.0 1004.4 0.0
28/03:00pm 32.1 29.5 3.1 16 14.9 N 6 11 3 6 1005.3 1004.7 0.0
28/02:30pm 32.8 30.3 4.6 17 14.9 NNE 7 15 4 8 1005.9 1005.3 0.0
28/02:00pm 32.7 31.4 7.5 21 14.0 SW 4 11 2 6 1006.5 1005.9 0.0
28/01:30pm 32.2 29.9 5.7 19 14.2 WNW 7 24 4 13 1006.9 1006.2 0.0
28/01:00pm 31.5 29.5 7.2 22 13.3 NNW 7 15 4 8 1007.5 1006.9 0.0
28/12:30pm 30.5 28.9 8.8 26 12.1 WNW 7 15 4 8 1007.8 1007.2 0.0
28/12:00pm 29.4 28.4 9.0 28 11.4 N 4 9 2 5 1008.1 1007.5 0.0
28/11:30am 28.7 27.3 9.4 30 10.8 N 7 15 4 8 1008.2 1007.6 0.0
28/11:00am 27.6 25.0 9.4 32 10.1 NE 13 19 7 10 1008.1 1007.5 0.0
28/10:30am 28.0 26.8 10.2 33 10.1 NE 7 11 4 6 1008.3 1007.7 0.0
28/10:00am 26.0 25.3 12.1 42 8.0 NE 7 9 4 5 1008.4 1007.8 0.0
28/09:30am 25.2 24.1 10.6 40 8.2 NE 7 11 4 6 1008.2 1007.6 0.0
28/09:00am 23.4 22.1 11.1 46 6.9 ESE 9 13 5 7 1007.9 1007.3 0.0
28/08:30am 21.6 20.9 11.3 52 5.7 ESE 6 7 3 4 1008.0 1007.4 0.0
28/08:00am 19.4 18.7 11.9 62 4.2 SE 7 9 4 5 1007.7 1007.1 0.0
28/07:30am 18.2 17.7 12.2 68 3.3 S 6 7 3 4 1007.7 1007.1 0.0
28/07:00am 18.4 19.1 12.2 67 3.5 CALM 0 6 0 3 1007.6 1007.0 0.0
28/06:30am 19.7 19.5 10.4 55 5.0 W 2 6 1 3 1007.5 1006.9 0.0
28/06:00am 20.0 19.0 10.4 54 5.2 NNW 6 13 3 7 1007.2 1006.6 0.0
28/05:30am 19.7 18.8 11.2 58 4.7 ESE 7 13 4 7 1006.2 1005.6 0.0
28/05:00am 19.8 19.4 13.0 65 3.9 ESE 7 11 4 6 1006.6 1006.0 0.0
28/04:30am 19.7 19.4 12.7 64 4.0 WSW 6 7 3 4 1007.3 1006.7 0.0
28/04:00am 19.9 19.5 12.4 62 4.2 W 6 9 3 5 1007.3 1006.7 0.0
28/03:30am 19.7 19.4 12.7 64 4.0 SW 6 6 3 3 1007.5 1006.9 0.0
28/03:00am 20.5 21.0 11.7 57 4.9 CALM 0 0 0 0 1007.5 1006.9 0.0
28/02:30am 19.6 19.1 11.9 61 4.3 SW 6 9 3 5 1007.5 1006.9 0.0
28/02:00am 20.1 20.7 13.1 64 4.0 S 2 4 1 2 1008.0 1007.4 0.0
28/01:30am 20.4 20.5 12.6 61 4.4 S 4 6 2 3 1008.0 1007.4 0.0
28/01:00am 20.4 20.2 13.1 63 4.2 WSW 6 6 3 3 1008.2 1007.6 0.0
28/12:30am 20.3 19.8 12.0 59 4.7 WSW 6 6 3 3 1008.1 1007.5 0.0
28/12:00am 20.2 19.7 12.2 60 4.5 WSW 6 6 3 3 1008.2 1007.6 0.0
 
Date/Time
EDT
Temp
°C
App
Temp
°C
Dew
Point
Rel
Hum
%
Delta-T
°C
Wind Press
QNH
hPa
Press
MSL
hPa
Rain
since 9 am
mm
Dir
 
Spd
km/h
Gust
km/h
Spd
kts
Gust
kts
27/11:30pm 20.6 20.4 11.8 57 4.9 WSW 4 6 2 3 1008.3 1007.7 0.0
27/11:00pm 20.4 20.1 11.6 57 4.9 WSW 4 6 2 3 1008.3 1007.7 0.0
27/10:30pm 21.1 20.1 9.0 46 6.5 WSW 4 6 2 3 1008.4 1007.8 0.0
27/10:00pm 21.0 19.9 9.9 49 6.0 WSW 6 7 3 4 1008.4 1007.8 0.0
27/09:30pm 21.2 19.5 9.8 48 6.2 WSW 9 9 5 5 1008.2 1007.6 0.0
27/09:00pm 23.8 22.1 8.2 37 8.3 W 7 9 4 5 1007.9 1007.3 0.0
27/08:30pm 25.2 23.0 7.8 33 9.3 W 9 9 5 5 1007.4 1006.8 0.0
27/08:00pm 26.4 24.2 6.4 28 10.5 W 7 9 4 5 1007.1 1006.4 0.0
27/07:30pm 28.1 24.6 5.6 24 11.8 WSW 13 17 7 9 1007.2 1006.6 0.0
27/07:00pm 29.1 24.8 5.2 22 12.5 SW 17 22 9 12 1006.9 1006.2 0.0
27/06:30pm 30.3 25.8 4.1 19 13.5 WSW 17 22 9 12 1006.7 1006.1 0.0
27/06:00pm 31.3 27.6 2.5 16 14.6 SW 11 20 6 11 1006.6 1006.0 0.0
27/05:30pm 31.6 27.4 3.6 17 14.4 WSW 15 20 8 11 1006.5 1005.9 0.0
27/05:00pm 30.7 28.3 7.2 23 12.8 NNW 9 15 5 8 1006.5 1005.9 0.0
27/04:30pm 31.1 27.7 7.5 23 12.9 WNW 15 26 8 14 1007.0 1006.3 0.0
27/04:00pm 30.5 27.9 7.7 24 12.5 NW 11 24 6 13 1007.2 1006.6 0.0
27/03:30pm 30.7 27.6 9.0 26 12.2 WNW 15 28 8 15 1007.7 1007.1 0.0
27/03:00pm 29.8 27.2 9.3 28 11.5 NW 13 28 7 15 1008.0 1007.4 0.0
27/02:30pm 29.4 27.4 10.0 30 11.0 NW 11 22 6 12 1008.5 1007.9 0.0
27/02:00pm 28.8 25.9 10.9 33 10.3 NW 17 26 9 14 1008.8 1008.2 0.0
27/01:30pm 28.8 26.6 12.2 35 9.7 WNW 15 24 8 13 1009.0 1008.4 0.0
27/01:00pm 28.2 26.5 12.5 37 9.2 NW 13 24 7 13 1009.3 1008.7 0.0
27/12:30pm 28.4 27.0 12.3 37 9.4 W 11 22 6 12 1009.9 1009.3 0.0
27/12:00pm 27.5 26.5 11.1 36 9.4 WNW 7 15 4 8 1010.2 1009.6 0.0
27/11:30am 27.1 26.3 11.6 38 8.9 NW 7 13 4 7 1010.5 1009.9 0.0
27/11:00am 26.5 25.4 10.6 37 9.0 W 7 11 4 6 1010.7 1010.1 0.0
27/10:30am 25.9 24.6 11.3 40 8.3 WSW 9 15 5 8 1010.7 1010.1 0.0
27/10:00am 24.1 24.3 14.2 54 5.9 SSW 6 9 3 5 1010.5 1009.9 0.0
27/09:30am 22.5 22.8 14.9 62 4.5 SW 7 11 4 6 1010.3 1009.7 0.0
27/09:00am 20.8 21.0 14.7 68 3.6 SSW 7 9 4 5 1010.2 1009.6 0.0
27/08:30am 18.3 18.5 14.2 77 2.4 SSW 6 9 3 5 1009.9 1009.3 0.0
27/08:00am 16.8 16.4 14.1 84 1.5 SW 9 11 5 6 1009.9 1009.3 0.0
27/07:30am 14.9 14.3 13.6 92 0.7 SW 9 9 5 5 1009.4 1008.8 0.0
27/07:00am 14.4 14.7 13.3 93 0.6 SW 4 6 2 3 1009.5 1008.9 0.0
27/06:30am 14.6 14.2 13.1 91 0.8 WSW 7 9 4 5 1008.6 1008.0 0.0
27/06:00am 15.4 15.8 13.8 90 0.9 WSW 4 6 2 3 1008.6 1008.0 0.0
27/05:30am 15.9 15.9 13.7 87 1.2 SW 6 7 3 4 1008.5 1007.9 0.0
27/05:00am 15.7 15.2 13.7 88 1.1 SSW 9 11 5 6 1008.4 1007.8 0.0
27/04:30am 16.1 15.5 13.6 85 1.4 S 9 11 5 6 1008.2 1007.6 0.0
27/04:00am 15.7 15.1 13.4 86 1.3 SW 9 11 5 6 1008.5 1007.9 0.0
27/03:30am 16.4 15.4 13.5 83 1.6 WSW 11 11 6 6 1008.5 1007.9 0.0
27/03:00am 16.8 16.3 13.7 82 1.8 WSW 9 11 5 6 1008.4 1007.8 0.0
27/02:30am 17.6 17.4 13.7 78 2.2 WSW 7 9 4 5 1008.6 1008.0 0.0
27/02:00am 17.8 17.9 13.9 78 2.2 WSW 6 7 3 4 1008.8 1008.2 0.0
27/01:30am 19.3 19.7 13.7 70 3.2 S 4 6 2 3 1009.0 1008.4 0.0
27/01:00am 19.2 19.9 13.4 69 3.3 S 2 6 1 3 1009.1 1008.5 0.0
27/12:30am 20.5 20.7 13.2 63 4.2 SSE 4 6 2 3 1008.9 1008.3 0.0
27/12:00am 21.5 20.2 13.7 61 4.5 S 13 17 7 9 1008.7 1008.1 0.0
 
Date/Time
EDT
Temp
°C
App
Temp
°C
Dew
Point
Rel
Hum
%
Delta-T
°C
Wind Press
QNH
hPa
Press
MSL
hPa
Rain
since 9 am
mm
Dir
 
Spd
km/h
Gust
km/h
Spd
kts
Gust
kts
26/11:30pm 21.6 20.7 13.8 61 4.5 SSW 11 15 6 8 1008.7 1008.1 0.0
26/11:00pm 21.9 20.6 13.8 60 4.7 SSW 13 17 7 9 1008.7 1008.1 0.0
26/10:30pm 21.8 21.0 13.9 61 4.6 SSW 11 15 6 8 1008.6 1008.0 0.0
26/10:00pm 21.9 21.4 13.8 60 4.7 SSW 9 13 5 7 1008.4 1007.8 0.0
26/09:30pm 22.3 22.1 13.6 58 5.1 SSW 7 9 4 5 1008.1 1007.5 0.0
26/09:00pm 23.0 22.2 12.9 53 5.8 SSW 9 11 5 6 1007.7 1007.1 0.0
26/08:30pm 24.5 23.2 12.5 47 6.9 SW 11 13 6 7 1007.4 1006.8 0.0
26/08:00pm 26.8 24.6 12.1 40 8.5 SW 15 20 8 11 1007.0 1006.3 0.0
26/07:30pm 28.5 26.3 12.0 36 9.6 SW 15 24 8 13 1006.5 1005.9 0.0
26/07:00pm 29.6 27.2 12.5 35 10.1 SW 17 28 9 15 1006.3 1005.7 0.0
26/06:30pm 29.9 27.5 12.8 35 10.2 SSW 17 24 9 13 1006.2 1005.6 0.0
26/06:00pm 28.9 26.5 12.8 37 9.5 SW 17 20 9 11 1006.2 1005.6 0.0
26/05:30pm 31.0 29.8 12.8 32 10.9 WSW 11 22 6 12 1006.2 1005.6 0.0
26/05:00pm 30.6 29.1 12.0 32 11.0 SSW 11 22 6 12 1006.3 1005.7 0.0
26/04:30pm 30.5 29.2 12.4 33 10.7 WSW 11 20 6 11 1006.5 1005.9 0.0
26/04:00pm 30.4 29.9 12.8 34 10.5 NW 7 15 4 8 1007.1 1006.4 0.0

Other Formats:

Comma delimited format used in spreadsheet applications
http://www.bom.gov.au/fwo/IDV60801/IDV60801.94862.axf

JavaScript Object Notation format (JSON) in row-major order
http://www.bom.gov.au/fwo/IDV60801/IDV60801.94862.json